Time;durP1;ratioP1;P1;durP2;ratioP2;P2;SDS_P1;SDS_P2;PMS_P1;PMS_P2;Temp;Humidity;BMP_temperature;BMP_pressure;BME280_temperature;BME280_humidity;BME280_pressure;Samples;Min_cycle;Max_cycle;Signal;HPM_P1;HPM_P2
2022/12/31 00:01:52;;;;;;;5.35;3.75;;;11.90;99.90;;;;;;4980277;28;20041;-85
2022/12/31 00:04:18;;;;;;;6.00;4.35;;;11.80;99.90;;;;;;4981272;28;20704;-85
2022/12/31 00:06:45;;;;;;;4.55;4.15;;;11.80;99.90;;;;;;4986142;28;20065;-84
2022/12/31 00:09:10;;;;;;;6.75;5.38;;;11.80;99.90;;;;;;5018654;28;20436;-84
2022/12/31 00:11:37;;;;;;;7.43;5.50;;;11.70;99.90;;;;;;5002654;28;20038;-84
2022/12/31 00:14:04;;;;;;;8.70;6.47;;;11.70;99.90;;;;;;5018667;28;20385;-84
2022/12/31 00:16:32;;;;;;;7.18;6.20;;;11.70;99.90;;;;;;4985498;28;20046;-84
2022/12/31 00:18:59;;;;;;;10.05;7.07;;;11.70;99.90;;;;;;5018395;28;20512;-84
2022/12/31 00:21:26;;;;;;;10.23;6.88;;;11.70;99.90;;;;;;4985837;28;20037;-83
2022/12/31 00:23:52;;;;;;;9.85;6.80;;;11.70;99.90;;;;;;4985793;28;20044;-84
2022/12/31 00:26:21;;;;;;;7.68;6.88;;;11.70;99.90;;;;;;5018155;28;20120;-84
2022/12/31 00:28:47;;;;;;;9.55;6.75;;;11.60;99.90;;;;;;5018436;28;20042;-86
2022/12/31 00:31:17;;;;;;;9.38;6.63;;;11.60;99.90;;;;;;5001966;28;20052;-85
2022/12/31 00:33:43;;;;;;;7.88;5.90;;;11.70;99.90;;;;;;5002216;28;20038;-84
2022/12/31 00:36:15;;;;;;;9.30;6.18;;;11.70;99.90;;;;;;5001896;28;20124;-85
2022/12/31 00:38:43;;;;;;;6.88;5.70;;;11.70;99.90;;;;;;5018346;28;20038;-86
2022/12/31 00:41:10;;;;;;;8.70;5.90;;;11.70;99.90;;;;;;5002103;28;20054;-86
2022/12/31 00:43:36;;;;;;;9.15;6.70;;;11.70;99.90;;;;;;5018587;28;20521;-85
2022/12/31 00:46:03;;;;;;;7.93;5.80;;;11.70;99.90;;;;;;4993997;28;20503;-84
2022/12/31 00:48:29;;;;;;;8.15;5.80;;;11.70;99.90;;;;;;4983034;28;20124;-85
2022/12/31 00:50:56;;;;;;;8.57;6.10;;;11.70;99.90;;;;;;4999445;28;20050;-84
2022/12/31 00:53:22;;;;;;;9.40;6.70;;;11.70;99.90;;;;;;4999106;28;20044;-84
2022/12/31 00:55:48;;;;;;;10.88;6.70;;;11.70;99.90;;;;;;5016695;28;20029;-86
2022/12/31 00:58:14;;;;;;;12.75;7.13;;;11.70;99.90;;;;;;4985448;28;20111;-83
2022/12/31 01:00:42;;;;;;;13.43;7.50;;;11.70;99.90;;;;;;5017327;28;20053;-84
2022/12/31 01:03:08;;;;;;;10.75;6.35;;;11.70;99.90;;;;;;4985162;28;20042;-84
2022/12/31 01:05:34;;;;;;;10.45;6.35;;;11.70;99.90;;;;;;5000773;28;20064;-84
2022/12/31 01:08:00;;;;;;;8.77;6.22;;;11.70;99.90;;;;;;5014374;28;20044;-84
2022/12/31 01:13:11;;;;;;;9.70;6.40;;;11.70;99.90;;;;;;4998235;28;20053;-85
2022/12/31 01:15:38;;;;;;;9.10;6.38;;;11.70;99.90;;;;;;4964384;28;20046;-85
2022/12/31 01:18:05;;;;;;;9.00;6.20;;;11.70;99.90;;;;;;4991925;28;20034;-84
2022/12/31 01:20:36;;;;;;;8.90;6.00;;;11.70;99.90;;;;;;5014892;28;20045;-83
2022/12/31 01:23:02;;;;;;;8.35;6.35;;;11.70;99.90;;;;;;4998360;28;20034;-84
2022/12/31 01:25:28;;;;;;;10.38;6.75;;;11.70;99.90;;;;;;4998316;28;20045;-83
2022/12/31 01:27:54;;;;;;;8.95;6.40;;;11.70;99.90;;;;;;4982465;28;20074;-83
2022/12/31 01:30:19;;;;;;;7.10;6.40;;;11.70;99.90;;;;;;4998683;28;20124;-84
2022/12/31 01:32:45;;;;;;;9.23;6.50;;;11.80;99.90;;;;;;4982463;28;20042;-84
2022/12/31 01:35:11;;;;;;;9.52;6.38;;;11.70;99.90;;;;;;4966666;28;20050;-84
2022/12/31 01:37:37;;;;;;;9.77;6.22;;;11.70;99.90;;;;;;4998312;28;20502;-84
2022/12/31 01:40:04;;;;;;;9.27;6.15;;;11.70;99.90;;;;;;4998536;28;20046;-83
2022/12/31 01:42:29;;;;;;;7.80;6.43;;;11.70;99.90;;;;;;5011364;28;20485;-84
2022/12/31 01:44:56;;;;;;;6.57;5.88;;;11.70;99.90;;;;;;4963098;28;20069;-84
2022/12/31 01:47:37;;;;;;;8.27;5.95;;;11.70;99.90;;;;;;4995574;28;20112;-83
2022/12/31 01:50:17;;;;;;;7.75;5.70;;;11.70;99.90;;;;;;5004136;28;20046;-84
2022/12/31 01:53:03;;;;;;;8.43;5.85;;;11.70;99.90;;;;;;4997856;28;20057;-84
2022/12/31 01:55:38;;;;;;;7.13;6.10;;;11.70;99.90;;;;;;4998198;28;20104;-84
2022/12/31 01:58:10;;;;;;;8.57;5.80;;;11.70;99.90;;;;;;4998299;28;20390;-84
2022/12/31 02:00:36;;;;;;;9.52;5.70;;;11.70;99.90;;;;;;4998223;28;20110;-83
2022/12/31 02:03:06;;;;;;;9.95;5.57;;;11.70;99.90;;;;;;4998031;28;20069;-83
2022/12/31 02:05:46;;;;;;;9.68;6.07;;;11.70;99.90;;;;;;4997717;28;20132;-84
2022/12/31 02:08:12;;;;;;;9.57;5.72;;;11.70;99.90;;;;;;4997652;28;20041;-84
2022/12/31 02:10:38;;;;;;;8.63;4.85;;;11.60;99.90;;;;;;4965854;28;20104;-84
2022/12/31 02:13:03;;;;;;;10.98;5.75;;;11.60;99.90;;;;;;4997660;28;20038;-84
2022/12/31 02:15:57;;;;;;;8.20;5.47;;;11.60;99.90;;;;;;4997735;28;20045;-84
2022/12/31 02:18:35;;;;;;;7.38;5.22;;;11.60;99.90;;;;;;4987298;28;20092;-83
2022/12/31 02:21:25;;;;;;;10.25;5.88;;;11.60;99.90;;;;;;4997637;28;20042;-84
2022/12/31 02:24:25;;;;;;;8.23;5.20;;;11.50;99.90;;;;;;4997430;28;20042;-84
2022/12/31 02:27:15;;;;;;;8.32;5.15;;;11.60;99.90;;;;;;4997295;28;20068;-84
2022/12/31 02:30:02;;;;;;;7.20;4.60;;;11.60;99.90;;;;;;4997731;28;20048;-84
2022/12/31 02:32:47;;;;;;;6.78;4.25;;;11.50;99.90;;;;;;5013449;28;20045;-85
2022/12/31 02:35:31;;;;;;;8.18;4.20;;;11.50;99.90;;;;;;5013808;28;20489;-85
2022/12/31 02:38:21;;;;;;;5.45;4.15;;;11.50;99.90;;;;;;4977869;28;20533;-83
2022/12/31 02:40:47;;;;;;;5.95;4.20;;;11.50;99.90;;;;;;4977823;28;20051;-85
2022/12/31 02:43:13;;;;;;;7.05;5.18;;;11.50;99.90;;;;;;4977549;28;20606;-84
2022/12/31 02:45:46;;;;;;;8.30;4.43;;;11.50;99.90;;;;;;4991750;28;20095;-85
2022/12/31 02:48:30;;;;;;;6.30;4.53;;;11.40;99.90;;;;;;4997257;28;20042;-85
2022/12/31 02:51:17;;;;;;;5.53;3.70;;;11.40;99.90;;;;;;5013387;28;20571;-84
2022/12/31 02:54:04;;;;;;;7.63;3.20;;;11.40;99.90;;;;;;4977354;28;20046;-84
2022/12/31 02:57:08;;;;;;;4.45;3.50;;;11.40;99.90;;;;;;4994056;28;20145;-84
2022/12/31 03:02:45;;;;;;;6.32;2.65;;;11.30;99.90;;;;;;4993047;28;20046;-83
2022/12/31 03:05:14;;;;;;;3.85;2.95;;;11.30;99.90;;;;;;4961362;28;20116;-84
2022/12/31 03:07:41;;;;;;;3.88;2.60;;;11.30;99.90;;;;;;4994596;28;20393;-85
2022/12/31 03:10:08;;;;;;;4.55;2.50;;;11.30;99.90;;;;;;4996861;28;20045;-85
2022/12/31 03:12:47;;;;;;;2.53;1.90;;;11.30;99.90;;;;;;4997401;28;20057;-84
2022/12/31 03:15:26;;;;;;;4.07;1.90;;;11.20;99.90;;;;;;5012868;28;20168;-84
2022/12/31 03:17:58;;;;;;;3.47;1.73;;;11.20;99.90;;;;;;4996724;28;20049;-85
2022/12/31 03:23:30;;;;;;;2.42;1.73;;;11.10;99.90;;;;;;5013161;28;20046;-85
2022/12/31 03:25:57;;;;;;;2.83;1.25;;;11.10;99.90;;;;;;5009408;28;20038;-84
2022/12/31 03:28:25;;;;;;;2.33;1.48;;;11.10;99.90;;;;;;4961081;28;20093;-84
2022/12/31 03:30:53;;;;;;;2.70;1.45;;;11.10;99.90;;;;;;4976656;28;20560;-84
2022/12/31 03:33:20;;;;;;;2.42;1.33;;;11.10;99.90;;;;;;4977073;28;20035;-84
2022/12/31 03:35:48;;;;;;;3.67;1.33;;;11.00;99.90;;;;;;4976669;28;20053;-84
2022/12/31 03:38:15;;;;;;;3.92;1.27;;;11.00;99.90;;;;;;4967125;28;20113;-84
2022/12/31 03:40:44;;;;;;;2.67;1.40;;;11.00;99.90;;;;;;4995055;28;20128;-84
2022/12/31 03:43:10;;;;;;;3.90;1.98;;;11.00;99.90;;;;;;4996345;28;20034;-84
2022/12/31 03:45:36;;;;;;;3.83;2.28;;;11.00;99.90;;;;;;4995858;28;20038;-84
2022/12/31 03:48:03;;;;;;;4.20;1.80;;;11.00;99.90;;;;;;4980067;28;20487;-83
2022/12/31 03:50:29;;;;;;;3.38;1.88;;;11.00;99.90;;;;;;4995862;28;20048;-84
2022/12/31 03:52:56;;;;;;;2.70;1.77;;;11.00;99.90;;;;;;4980127;28;20128;-84
2022/12/31 03:55:22;;;;;;;3.15;2.10;;;11.00;99.90;;;;;;4979879;28;20489;-84
2022/12/31 03:57:47;;;;;;;5.00;2.03;;;11.00;99.90;;;;;;5012457;28;20056;-85
2022/12/31 04:00:17;;;;;;;4.88;2.15;;;10.90;99.90;;;;;;4980139;28;20060;-84
2022/12/31 04:02:43;;;;;;;5.15;2.58;;;11.00;99.90;;;;;;5012275;28;20096;-84
2022/12/31 04:05:10;;;;;;;7.18;2.58;;;10.90;99.90;;;;;;4995654;28;20054;-84
2022/12/31 04:07:36;;;;;;;4.67;2.43;;;10.90;99.90;;;;;;5012521;28;20413;-84
2022/12/31 04:10:03;;;;;;;4.30;2.40;;;11.00;99.90;;;;;;4996201;28;20041;-85
2022/12/31 04:12:29;;;;;;;4.13;2.53;;;10.90;99.90;;;;;;4980157;28;20038;-85
2022/12/31 04:14:54;;;;;;;6.07;2.75;;;10.90;99.90;;;;;;4976815;28;20871;-84
2022/12/31 04:17:20;;;;;;;4.47;2.83;;;11.00;99.90;;;;;;4976366;28;20050;-84
2022/12/31 04:19:46;;;;;;;5.50;3.10;;;10.90;99.90;;;;;;4976228;28;20043;-84
2022/12/31 04:22:12;;;;;;;3.90;2.85;;;10.90;99.90;;;;;;4976406;28;20042;-85
2022/12/31 04:24:37;;;;;;;4.83;3.13;;;10.90;99.90;;;;;;4976368;28;20042;-84
2022/12/31 04:27:03;;;;;;;3.83;2.80;;;10.90;99.90;;;;;;4976344;28;20041;-84
2022/12/31 04:29:29;;;;;;;6.40;3.63;;;10.90;99.90;;;;;;4992662;28;20039;-84
2022/12/31 04:31:54;;;;;;;6.75;3.72;;;10.90;99.90;;;;;;4975709;28;20111;-84
2022/12/31 04:34:20;;;;;;;6.05;3.90;;;10.90;99.90;;;;;;4975958;28;20081;-85
2022/12/31 04:36:46;;;;;;;10.13;4.22;;;10.90;99.90;;;;;;4960037;28;20034;-83
2022/12/31 04:39:12;;;;;;;6.10;4.18;;;10.90;99.90;;;;;;4960091;28;20100;-85
2022/12/31 04:41:37;;;;;;;5.18;3.95;;;10.90;99.90;;;;;;4958649;28;20073;-84
2022/12/31 04:44:03;;;;;;;5.45;3.90;;;11.00;99.90;;;;;;4978647;28;20045;-83
2022/12/31 04:46:31;;;;;;;5.90;4.13;;;11.00;99.90;;;;;;4995570;28;20046;-84
2022/12/31 04:48:58;;;;;;;5.82;3.83;;;11.00;99.90;;;;;;4995651;28;20104;-83
2022/12/31 04:51:25;;;;;;;5.63;3.97;;;11.00;99.90;;;;;;5012845;28;20454;-84
2022/12/31 04:53:50;;;;;;;7.93;3.88;;;11.00;99.90;;;;;;4999175;28;20045;-83
2022/12/31 04:56:16;;;;;;;4.13;3.53;;;11.00;99.90;;;;;;5015215;28;20103;-84
2022/12/31 04:58:43;;;;;;;5.50;3.58;;;11.00;99.90;;;;;;4998393;28;20046;-84
2022/12/31 05:01:09;;;;;;;6.85;3.88;;;11.00;99.90;;;;;;4998604;28;20121;-84
2022/12/31 05:03:35;;;;;;;5.88;3.80;;;11.00;99.90;;;;;;4982476;28;20108;-84
2022/12/31 05:06:05;;;;;;;7.22;3.47;;;11.00;99.90;;;;;;4998942;28;20050;-85
2022/12/31 05:08:31;;;;;;;5.38;3.20;;;11.00;99.90;;;;;;4998831;28;20037;-84
2022/12/31 05:10:57;;;;;;;6.80;3.10;;;11.00;99.90;;;;;;5014774;28;20045;-83
2022/12/31 05:13:23;;;;;;;5.75;2.90;;;11.00;99.90;;;;;;5015118;28;20046;-84
2022/12/31 05:15:49;;;;;;;4.40;2.95;;;11.00;99.90;;;;;;4982880;28;20041;-85
2022/12/31 05:18:15;;;;;;;4.63;3.17;;;11.00;99.90;;;;;;4982428;28;20042;-84
2022/12/31 05:20:41;;;;;;;6.25;3.20;;;11.00;99.90;;;;;;4982177;28;20038;-85
2022/12/31 05:23:07;;;;;;;5.57;3.10;;;11.00;99.90;;;;;;4982491;28;20040;-84
2022/12/31 05:25:33;;;;;;;4.88;2.60;;;11.00;99.90;;;;;;4998653;28;20073;-84
2022/12/31 05:27:59;;;;;;;6.65;2.70;;;10.90;99.90;;;;;;4998927;28;20073;-84
2022/12/31 05:30:25;;;;;;;5.88;3.10;;;10.90;99.90;;;;;;4966170;28;20046;-83
2022/12/31 05:32:51;;;;;;;6.05;2.63;;;10.90;99.90;;;;;;4982182;28;20045;-85
2022/12/31 05:35:17;;;;;;;5.85;2.67;;;10.90;99.90;;;;;;5014431;28;20077;-85
2022/12/31 05:37:43;;;;;;;4.07;2.40;;;10.90;99.90;;;;;;4998764;28;20049;-84
2022/12/31 05:40:09;;;;;;;4.75;2.60;;;10.90;99.90;;;;;;4981847;28;20042;-84
2022/12/31 05:42:35;;;;;;;4.63;3.03;;;10.90;99.90;;;;;;4998095;28;20112;-84
2022/12/31 05:45:01;;;;;;;6.75;3.67;;;10.90;99.90;;;;;;4998506;28;20144;-84
2022/12/31 05:47:27;;;;;;;5.80;3.67;;;10.80;99.90;;;;;;4982151;28;20044;-84
2022/12/31 05:49:52;;;;;;;5.53;3.65;;;10.80;99.90;;;;;;5014516;28;20041;-84
2022/12/31 05:52:19;;;;;;;7.97;3.80;;;10.80;99.90;;;;;;4998254;28;20046;-84
2022/12/31 05:54:44;;;;;;;6.05;3.65;;;10.80;99.90;;;;;;5014303;28;20503;-85
2022/12/31 05:57:10;;;;;;;8.23;3.70;;;10.80;99.90;;;;;;4981888;28;20046;-84
2022/12/31 05:59:36;;;;;;;5.93;3.00;;;10.80;99.90;;;;;;4997929;28;20042;-84
2022/12/31 06:02:02;;;;;;;7.80;3.85;;;10.90;99.90;;;;;;4981234;28;20042;-84
2022/12/31 06:04:29;;;;;;;5.88;3.33;;;10.90;99.90;;;;;;4981850;28;20057;-85
2022/12/31 06:06:54;;;;;;;5.85;4.22;;;10.90;99.90;;;;;;4981978;28;20482;-81
2022/12/31 06:09:21;;;;;;;5.93;4.10;;;10.90;99.90;;;;;;4965564;28;20038;-83
2022/12/31 06:11:47;;;;;;;9.38;4.90;;;10.90;99.90;;;;;;4998131;28;20096;-83
2022/12/31 06:14:13;;;;;;;8.43;5.10;;;10.90;99.90;;;;;;4998122;28;20708;-84
2022/12/31 06:16:40;;;;;;;7.60;4.97;;;10.90;99.90;;;;;;4997784;28;20037;-82
2022/12/31 06:19:06;;;;;;;7.13;4.97;;;10.90;99.90;;;;;;4998035;28;20405;-81
2022/12/31 06:21:32;;;;;;;6.40;5.05;;;10.90;99.90;;;;;;5014468;28;20046;-83
2022/12/31 06:23:58;;;;;;;5.40;4.82;;;10.90;99.90;;;;;;4981105;28;20805;-83
2022/12/31 06:26:24;;;;;;;7.65;5.25;;;10.90;99.90;;;;;;4997716;28;20045;-82
2022/12/31 06:28:50;;;;;;;4.10;3.43;;;11.00;99.90;;;;;;4965275;28;20053;-82
2022/12/31 06:31:16;;;;;;;4.32;3.45;;;11.00;99.90;;;;;;4997769;28;20042;-83
2022/12/31 06:33:41;;;;;;;4.23;3.83;;;11.00;99.90;;;;;;4997398;28;20054;-84
2022/12/31 06:36:11;;;;;;;5.13;4.00;;;11.00;99.90;;;;;;5013655;28;20041;-83
2022/12/31 06:38:39;;;;;;;5.35;4.07;;;11.00;99.90;;;;;;4997038;28;20371;-84
2022/12/31 06:41:11;;;;;;;4.87;3.80;;;11.00;99.90;;;;;;5013806;28;20176;-83
2022/12/31 06:43:38;;;;;;;4.43;3.88;;;11.00;99.90;;;;;;4997129;28;20045;-82
2022/12/31 06:46:05;;;;;;;6.40;4.13;;;11.00;99.90;;;;;;5013785;28;20045;-83
2022/12/31 06:48:32;;;;;;;4.63;4.23;;;11.00;99.90;;;;;;4997237;28;20100;-82
2022/12/31 06:51:17;;;;;;;4.70;3.90;;;11.00;99.90;;;;;;4964428;28;20042;-82
2022/12/31 06:53:44;;;;;;;5.18;3.78;;;11.00;99.90;;;;;;4996220;28;20044;-82
2022/12/31 06:56:24;;;;;;;4.10;3.60;;;11.00;99.90;;;;;;4996562;28;20485;-83
2022/12/31 06:58:51;;;;;;;5.40;3.35;;;11.00;99.90;;;;;;4977316;28;20057;-83
2022/12/31 07:01:34;;;;;;;6.18;4.45;;;10.90;99.90;;;;;;4991818;28;20049;-84
2022/12/31 07:04:07;;;;;;;3.88;3.47;;;11.00;99.90;;;;;;4993571;28;20059;-83
2022/12/31 07:06:36;;;;;;;5.03;3.50;;;11.00;99.90;;;;;;5005320;28;20433;-83
2022/12/31 07:09:33;;;;;;;4.20;3.80;;;10.90;99.90;;;;;;5013130;28;20042;-84
2022/12/31 07:12:39;;;;;;;4.70;4.22;;;10.90;99.90;;;;;;4971422;28;20291;-84
2022/12/31 07:15:13;;;;;;;5.00;3.88;;;10.90;99.90;;;;;;4995935;28;20475;-82
2022/12/31 07:18:03;;;;;;;4.07;3.67;;;10.90;99.90;;;;;;4995805;28;20037;-82
2022/12/31 07:20:30;;;;;;;5.88;4.20;;;10.90;99.90;;;;;;5010698;28;20038;-83
2022/12/31 07:22:55;;;;;;;4.90;3.50;;;10.90;99.90;;;;;;4996362;28;20045;-82
2022/12/31 07:25:22;;;;;;;5.32;3.53;;;10.90;99.90;;;;;;4961799;28;20038;-83
2022/12/31 07:28:06;;;;;;;6.53;3.80;;;10.90;99.90;;;;;;4962727;28;20040;-83
2022/12/31 07:30:59;;;;;;;4.70;4.05;;;10.90;99.90;;;;;;4995530;28;20117;-83
2022/12/31 07:33:34;;;;;;;5.30;4.32;;;10.90;99.90;;;;;;4993570;28;20053;-83
2022/12/31 07:36:12;;;;;;;5.03;4.13;;;10.90;99.90;;;;;;5010055;28;20108;-82
2022/12/31 07:39:04;;;;;;;5.53;4.32;;;10.80;99.90;;;;;;5010086;28;20042;-83
2022/12/31 07:41:36;;;;;;;5.45;4.85;;;10.90;99.90;;;;;;5001380;28;20066;-84
2022/12/31 07:44:10;;;;;;;5.93;4.53;;;10.80;99.90;;;;;;4983770;28;20044;-84
2022/12/31 07:46:54;;;;;;;5.53;4.32;;;10.80;99.90;;;;;;4991431;28;20416;-85
2022/12/31 07:49:20;;;;;;;6.97;3.92;;;10.80;99.90;;;;;;4997227;28;20042;-83
2022/12/31 07:51:46;;;;;;;6.75;4.25;;;10.80;99.90;;;;;;5010000;28;20041;-84
2022/12/31 07:54:12;;;;;;;5.38;4.38;;;10.90;99.90;;;;;;4977705;28;20125;-83
2022/12/31 07:56:38;;;;;;;5.88;4.07;;;10.90;99.90;;;;;;5011386;28;20046;-83
2022/12/31 07:59:15;;;;;;;3.97;3.35;;;10.90;99.90;;;;;;4951471;28;20046;-83
2022/12/31 08:01:50;;;;;;;4.27;3.23;;;10.90;99.90;;;;;;5010724;28;20046;-83
2022/12/31 08:04:30;;;;;;;4.78;3.42;;;10.90;99.90;;;;;;5010728;28;20058;-82
2022/12/31 08:07:14;;;;;;;3.92;3.13;;;10.90;99.90;;;;;;5003648;28;20555;-84
2022/12/31 08:09:52;;;;;;;3.72;3.40;;;10.90;99.90;;;;;;4985362;28;20429;-83
2022/12/31 08:12:20;;;;;;;5.88;3.38;;;11.00;99.90;;;;;;5002579;28;20050;-83
2022/12/31 08:14:47;;;;;;;3.58;2.78;;;10.90;99.90;;;;;;4976128;28;20038;-84
2022/12/31 08:17:15;;;;;;;3.67;3.13;;;11.00;99.90;;;;;;4995034;28;20040;-83
2022/12/31 08:19:41;;;;;;;4.70;3.20;;;11.00;99.90;;;;;;4988980;28;20050;-85
2022/12/31 08:22:25;;;;;;;3.83;3.45;;;11.10;99.90;;;;;;5005890;28;20399;-84
2022/12/31 08:25:06;;;;;;;3.90;3.50;;;11.10;99.90;;;;;;4995372;28;20042;-83
2022/12/31 08:28:00;;;;;;;5.97;3.60;;;11.10;99.90;;;;;;5008880;28;20172;-82
2022/12/31 08:30:50;;;;;;;5.47;3.38;;;11.10;99.90;;;;;;4979239;28;20065;-84
2022/12/31 08:33:48;;;;;;;4.32;3.20;;;11.20;99.90;;;;;;4998667;28;20054;-84
2022/12/31 08:36:26;;;;;;;5.90;3.83;;;11.10;99.90;;;;;;4966822;28;20050;-83
2022/12/31 08:39:00;;;;;;;4.85;4.03;;;11.10;99.90;;;;;;5004814;28;20693;-84
2022/12/31 08:41:32;;;;;;;7.63;4.93;;;11.20;99.90;;;;;;5009984;28;20057;-84
2022/12/31 08:44:07;;;;;;;7.03;5.00;;;11.20;99.90;;;;;;5015120;28;20548;-84
2022/12/31 08:46:45;;;;;;;6.93;4.87;;;11.20;99.90;;;;;;5015623;28;20080;-83
2022/12/31 08:49:13;;;;;;;7.03;5.28;;;11.20;99.90;;;;;;4998752;28;20042;-84
2022/12/31 08:51:39;;;;;;;7.07;5.35;;;11.20;99.90;;;;;;4975852;28;20038;-83
2022/12/31 08:54:05;;;;;;;6.05;5.15;;;11.20;99.90;;;;;;4982138;28;20049;-83
2022/12/31 08:56:36;;;;;;;6.57;5.05;;;11.30;99.90;;;;;;5007801;28;20048;-84
2022/12/31 08:59:28;;;;;;;7.32;5.20;;;11.30;99.90;;;;;;4992497;28;20061;-84
2022/12/31 09:02:06;;;;;;;8.52;5.15;;;11.40;99.90;;;;;;5028820;28;20045;-84
2022/12/31 09:04:32;;;;;;;7.78;5.50;;;11.50;99.90;;;;;;5010288;28;20056;-83
2022/12/31 09:07:02;;;;;;;7.80;5.13;;;11.50;99.90;;;;;;5007427;28;20042;-84
2022/12/31 09:10:00;;;;;;;6.93;5.03;;;11.60;99.90;;;;;;4996346;28;20114;-83
2022/12/31 09:12:48;;;;;;;6.40;5.32;;;11.70;99.90;;;;;;5014230;28;20433;-84
2022/12/31 09:15:28;;;;;;;5.10;4.55;;;11.80;99.90;;;;;;5003714;28;20051;-83
2022/12/31 09:17:54;;;;;;;5.63;4.72;;;11.90;99.90;;;;;;5011696;28;20097;-84
2022/12/31 09:20:32;;;;;;;5.20;4.15;;;11.90;99.90;;;;;;4981908;28;20042;-84
2022/12/31 09:22:59;;;;;;;4.18;3.78;;;12.00;99.90;;;;;;4984651;28;20382;-83
2022/12/31 09:25:25;;;;;;;5.18;4.00;;;12.10;99.90;;;;;;4998404;28;20046;-82
2022/12/31 09:28:14;;;;;;;4.15;3.70;;;12.10;99.90;;;;;;4982244;28;20040;-82
2022/12/31 09:31:00;;;;;;;3.47;2.90;;;12.20;99.90;;;;;;5014462;28;20046;-82
2022/12/31 09:33:25;;;;;;;3.40;2.85;;;12.30;99.90;;;;;;4979208;28;20038;-79
2022/12/31 09:35:59;;;;;;;3.25;2.80;;;12.30;99.90;;;;;;5007338;28;20061;-83
2022/12/31 09:39:00;;;;;;;2.92;2.40;;;12.30;99.90;;;;;;4983486;28;20099;-81
2022/12/31 09:41:28;;;;;;;2.35;2.08;;;12.40;99.90;;;;;;4989082;28;20053;-83
2022/12/31 09:44:32;;;;;;;4.20;2.42;;;12.40;99.90;;;;;;4991622;28;20482;-82
2022/12/31 09:47:34;;;;;;;2.85;1.70;;;12.50;99.90;;;;;;5005811;28;20046;-83
2022/12/31 09:50:00;;;;;;;3.95;2.08;;;12.50;99.90;;;;;;4987582;28;20054;-83
2022/12/31 09:52:57;;;;;;;1.95;1.77;;;12.50;99.90;;;;;;5003126;28;20383;-83
2022/12/31 09:55:51;;;;;;;3.63;1.70;;;12.50;99.90;;;;;;5021908;28;20399;-82
2022/12/31 09:58:31;;;;;;;1.92;1.20;;;12.50;99.90;;;;;;4987375;28;20041;-82
2022/12/31 10:01:03;;;;;;;1.20;1.10;;;12.60;99.90;;;;;;5004582;28;20595;-82
2022/12/31 10:03:53;;;;;;;1.95;1.08;;;12.60;99.90;;;;;;5005763;28;20100;-83
2022/12/31 10:06:27;;;;;;;1.10;1.00;;;12.70;99.90;;;;;;4993813;28;20046;-83
2022/12/31 10:09:21;;;;;;;1.02;0.93;;;12.70;99.90;;;;;;5026555;28;20034;-83
2022/12/31 10:12:18;;;;;;;1.20;1.10;;;12.80;99.90;;;;;;4998170;28;20046;-81
2022/12/31 10:14:51;;;;;;;1.77;1.20;;;12.80;99.90;;;;;;5000407;28;20164;-83
2022/12/31 10:17:36;;;;;;;1.20;1.10;;;12.90;99.90;;;;;;5008904;28;20042;-83
2022/12/31 10:20:48;;;;;;;2.08;1.20;;;12.80;99.90;;;;;;5022178;28;20042;-84
2022/12/31 10:23:35;;;;;;;1.35;1.25;;;12.90;99.90;;;;;;4979714;28;20108;-84
2022/12/31 10:26:06;;;;;;;1.50;1.10;;;12.90;99.90;;;;;;4999959;28;20067;-83
2022/12/31 10:28:55;;;;;;;1.73;0.90;;;12.90;99.90;;;;;;5002208;28;20042;-83
2022/12/31 10:31:36;;;;;;;2.08;1.40;;;12.90;99.90;;;;;;4987333;28;20447;-82
2022/12/31 10:34:40;;;;;;;3.25;1.27;;;12.90;99.90;;;;;;5005507;28;20089;-81
2022/12/31 10:37:13;;;;;;;3.85;1.10;;;13.00;99.90;;;;;;4956219;28;20525;-84
2022/12/31 10:39:45;;;;;;;1.67;1.33;;;13.00;99.90;;;;;;4982698;28;20050;-83
2022/12/31 10:42:38;;;;;;;1.52;1.15;;;13.10;99.90;;;;;;5013160;28;20169;-84
2022/12/31 10:45:35;;;;;;;1.77;1.23;;;13.10;99.90;;;;;;5005295;28;20128;-83
2022/12/31 10:48:20;;;;;;;1.70;1.20;;;13.10;99.90;;;;;;4999146;28;20038;-83
2022/12/31 10:50:54;;;;;;;4.03;1.50;;;13.10;99.90;;;;;;5003856;28;20688;-83
2022/12/31 10:53:39;;;;;;;3.67;1.30;;;13.20;99.90;;;;;;5005781;28;20050;-83
2022/12/31 10:56:37;;;;;;;5.90;1.35;;;13.30;99.90;;;;;;5014689;28;20041;-82
2022/12/31 10:59:21;;;;;;;3.65;1.55;;;13.30;99.90;;;;;;5012646;28;20046;-82
2022/12/31 11:02:36;;;;;;;6.60;5.82;;;13.30;99.90;;;;;;5004090;28;20049;-81
2022/12/31 11:05:49;;;;;;;7.18;6.53;;;13.30;99.90;;;;;;4983114;28;20430;-83
2022/12/31 11:08:34;;;;;;;4.88;3.10;;;13.30;99.90;;;;;;4998920;28;20132;-83
2022/12/31 11:11:18;;;;;;;4.50;1.70;;;13.30;99.90;;;;;;5011440;28;20077;-82
2022/12/31 11:14:21;;;;;;;2.75;1.63;;;13.30;99.90;;;;;;5006137;28;20074;-83
2022/12/31 11:17:16;;;;;;;4.38;1.73;;;13.30;99.90;;;;;;4992985;28;20096;-82
2022/12/31 11:20:14;;;;;;;3.05;2.10;;;13.20;99.90;;;;;;4959149;28;20133;-82
2022/12/31 11:23:01;;;;;;;3.10;1.67;;;13.30;99.90;;;;;;4995298;28;20042;-84
2022/12/31 11:26:03;;;;;;;2.92;1.80;;;13.20;99.90;;;;;;5019973;28;20042;-83
2022/12/31 11:28:46;;;;;;;3.88;1.60;;;13.20;99.90;;;;;;5010561;28;20042;-86
2022/12/31 11:31:22;;;;;;;3.38;2.05;;;13.20;99.90;;;;;;5018677;28;20041;-83
2022/12/31 11:34:02;;;;;;;3.10;1.30;;;13.20;99.90;;;;;;5001173;28;20044;-84
2022/12/31 11:37:10;;;;;;;4.28;1.60;;;13.20;99.90;;;;;;4996021;28;20049;-82
2022/12/31 11:39:48;;;;;;;2.45;1.30;;;13.20;99.90;;;;;;5012161;28;20132;-84
2022/12/31 11:42:37;;;;;;;3.80;1.52;;;13.20;99.90;;;;;;5012695;28;20135;-83
2022/12/31 11:45:40;;;;;;;1.88;1.40;;;13.20;99.90;;;;;;5012004;28;20168;-83
2022/12/31 11:48:22;;;;;;;1.98;1.33;;;13.20;99.90;;;;;;5012059;28;20073;-84
2022/12/31 11:51:08;;;;;;;4.50;2.00;;;13.20;99.90;;;;;;5009020;28;20038;-81
2022/12/31 11:54:05;;;;;;;3.60;2.45;;;13.20;99.90;;;;;;5000297;28;20042;-80
2022/12/31 11:56:36;;;;;;;4.93;2.30;;;13.20;99.90;;;;;;5012161;28;20050;-81
2022/12/31 11:59:08;;;;;;;5.55;2.60;;;13.20;99.90;;;;;;4995713;28;20053;-83
2022/12/31 12:01:55;;;;;;;2.60;2.40;;;13.20;99.90;;;;;;4994755;28;20069;-82
2022/12/31 12:04:21;;;;;;;5.75;3.30;;;13.30;99.90;;;;;;5004214;28;20054;-83
2022/12/31 12:06:47;;;;;;;9.63;5.40;;;13.20;99.90;;;;;;4945601;28;20046;-81
2022/12/31 12:09:20;;;;;;;4.70;2.97;;;13.30;99.90;;;;;;4963503;28;20037;-81
2022/12/31 12:11:58;;;;;;;4.47;3.58;;;13.30;99.90;;;;;;4995667;28;20042;-83
2022/12/31 12:14:35;;;;;;;6.03;3.45;;;13.40;99.90;;;;;;4995755;28;20374;-82
2022/12/31 12:17:05;;;;;;;4.53;3.03;;;13.40;99.90;;;;;;5011783;28;20046;-82
2022/12/31 12:19:32;;;;;;;4.20;3.60;;;13.40;99.90;;;;;;4995324;28;20700;-85
2022/12/31 12:22:07;;;;;;;8.32;5.15;;;13.40;99.90;;;;;;4995290;28;20038;-81
2022/12/31 12:24:33;;;;;;;5.88;3.50;;;13.50;99.90;;;;;;5011261;28;20493;-83
2022/12/31 12:26:59;;;;;;;4.60;3.30;;;13.60;99.90;;;;;;4979179;28;20045;-81
2022/12/31 12:29:35;;;;;;;5.90;3.25;;;13.60;99.90;;;;;;4995344;28;20802;-83
2022/12/31 12:32:06;;;;;;;10.23;4.22;;;13.60;99.90;;;;;;4995103;28;20042;-83
2022/12/31 12:34:34;;;;;;;5.53;2.50;;;13.70;99.90;;;;;;5011316;28;20100;-83
2022/12/31 12:37:01;;;;;;;6.50;3.72;;;13.70;99.90;;;;;;4995481;28;20100;-84
2022/12/31 12:39:29;;;;;;;4.32;3.00;;;13.80;99.90;;;;;;4996970;28;20042;-85
2022/12/31 12:42:21;;;;;;;3.88;2.40;;;13.80;99.90;;;;;;5004862;28;20096;-85
2022/12/31 12:44:47;;;;;;;2.53;2.10;;;13.80;99.90;;;;;;4988417;28;20072;-85
2022/12/31 12:47:16;;;;;;;2.30;1.80;;;13.90;99.90;;;;;;5021551;28;20070;-81
2022/12/31 12:49:48;;;;;;;3.95;2.25;;;13.90;99.90;;;;;;5010181;28;20045;-83
2022/12/31 12:52:22;;;;;;;4.55;1.98;;;13.90;99.90;;;;;;4994985;28;20049;-84
2022/12/31 12:55:04;;;;;;;6.22;2.22;;;13.90;99.90;;;;;;5004588;28;20034;-84
2022/12/31 12:57:51;;;;;;;3.95;1.90;;;13.90;99.90;;;;;;5002935;28;20041;-84
2022/12/31 13:00:23;;;;;;;4.20;1.92;;;13.90;99.90;;;;;;4978045;28;20092;-84
2022/12/31 13:03:10;;;;;;;3.92;1.77;;;13.80;99.90;;;;;;4994936;28;20041;-83
2022/12/31 13:05:50;;;;;;;3.75;2.33;;;13.80;99.90;;;;;;4983484;28;20457;-83
2022/12/31 13:08:44;;;;;;;5.57;1.85;;;13.80;99.90;;;;;;5008938;28;20502;-84
2022/12/31 13:11:21;;;;;;;4.90;2.08;;;13.80;99.90;;;;;;5001266;28;20088;-83
2022/12/31 13:14:09;;;;;;;5.35;2.03;;;13.80;99.90;;;;;;5022972;28;20429;-83
2022/12/31 13:16:53;;;;;;;2.70;1.40;;;13.70;99.90;;;;;;5014410;28;20394;-84
2022/12/31 13:19:30;;;;;;;5.07;1.92;;;13.70;99.90;;;;;;5014349;28;20042;-85
2022/12/31 13:22:11;;;;;;;4.15;1.80;;;13.70;99.90;;;;;;5014202;28;20096;-85
2022/12/31 13:24:46;;;;;;;2.85;1.85;;;13.70;99.90;;;;;;5013887;28;20493;-83
2022/12/31 13:27:33;;;;;;;3.45;2.20;;;13.60;99.90;;;;;;5013986;28;20064;-85
2022/12/31 13:30:02;;;;;;;5.20;1.90;;;13.60;99.90;;;;;;5023014;28;20176;-84
2022/12/31 13:32:41;;;;;;;6.18;2.45;;;13.50;99.90;;;;;;4995574;28;20073;-83